Historyczne dane pomiarowe

Dodano dane terminowe – wersja testowa.

Dane z okresu 1951-2019

Wersja bazy: 1.34 [2019-03-16, lista zmian], aktualizacja planowana na 2019-04-15

Dane meteo z obszaru Polski uzyskane na podstawie danych udostępnionych przez Instytut Meteorologii i Gospodarki Wodnej – Państwowy Instytut Badawczy.

 

Wybierz Datę:    

       

TemperaturaWilgotnośćWiatrCiśnienieOpadyŚniegCzas trwania zjawisk
 Stacja t tx tn tng RH VA  wxwx mslp ppp RRR   cm mm wxwxwxwxwxwxwx
1999-08-14 15.6 22.4 8.2 4.0-- 5.0 2.7---- 2.7------------
1999-08-13 15.4 20.7 10.0 5.5-- 7.0 5.3---- 0.0------------
1999-08-12 15.9 18.5 12.3 10.3-- 8.0 6.3---- 0.0------------
1999-08-11 19.1 24.0 16.4 13.5-- 8.0 5.0---- 0.0------------
1999-08-10 21.5 26.4 15.5 14.7-- 8.0 2.7---- 0.2------------
1999-08-09 20.8 26.9 15.5 12.3-- 6.0 3.7---- 1.4------------
1999-08-08 22.7 28.9 16.7 14.7-- 4.7 2.3---- 1.9------------
1999-08-07 21.9 29.9 12.4 7.9-- 3.7 0.7---- 3.4------------
1999-08-06 21.9 28.9 14.1 13.8-- 3.3 2.7---- 0.0------------
1999-08-05 21.2 28.9 10.7 6.6-- 5.0 3.0---- 0.0------------
1999-08-04 20.2 29.1 10.1 5.5-- 1.3 2.7---- 0.0------------
1999-08-03 19.8 28.2 10.1 4.0-- 1.3 2.0---- 0.0------------
1999-08-02 19.8 27.9 10.3 5.1-- 4.7 3.7---- 0.0------------
1999-08-01 20.2 27.9 11.0 5.3-- 2.3 5.0---- 0.0------------
1999-07-31 21.9 29.6 12.3 7.4-- 2.0 4.7---- 0.0------------
1999-07-30 19.3 27.9 8.8 3.4-- 1.7 3.7---- 0.0------------
1999-07-29 18.9 25.9 9.2 4.0-- 3.3 5.0---- 0.0------------
1999-07-28 18.8 25.3 9.2 4.0-- 0.0 5.7---- 0.0------------
1999-07-27 17.2 23.1 9.5 5.0-- 0.3 2.3---- 0.0------------
1999-07-26 20.2 25.8 15.7 11.3-- 5.0 3.7---- 0.0------------
1999-07-25 20.7 26.4 15.4 14.8-- 7.3 2.7---- 0.0------------
1999-07-24 17.8 22.0 14.4 12.8-- 7.0 3.7---- 1.8------------
1999-07-23 16.5 20.0 12.4 8.7-- 5.3 4.7---- 0.0------------
1999-07-22 19.2 24.2 15.5 14.6-- 6.7 4.7---- 0.0------------
1999-07-21 22.3 27.5 17.5 14.7-- 4.3 3.3---- 0.0------------
1999-07-20 22.9 32.5 14.9 10.1-- 3.0 2.7---- 8.2------------
1999-07-19 24.1 31.4 14.4 14.4-- 2.0 3.3---- 0.0------------
1999-07-18 22.8 29.4 13.9 9.2-- 0.0 2.7---- 0.0------------
1999-07-17 19.2 25.4 10.5 5.5-- 3.7 2.3---- 0.0------------
1999-07-16 17.0 22.6 11.0 6.7-- 5.3 3.0---- 0.0------------
1999-07-15 17.4 20.5 13.9 12.1-- 6.0 4.7---- 0.0------------
1999-07-14 20.9 25.5 17.9 14.3-- 7.7 3.7---- 0.4------------
1999-07-13 23.1 29.1 15.9 13.6-- 3.3 2.3---- 0.0------------
1999-07-12 22.6 29.5 14.9 10.8-- 2.7 3.7---- 3.8------------
1999-07-11 21.1 27.4 12.8 11.8-- 2.3 5.3---- 0.0------------
1999-07-10 20.4 26.6 13.1 12.3-- 1.7 7.0---- 0.0------------
1999-07-09 19.5 25.0 14.9 14.5-- 5.0 5.7---- 0.0------------
1999-07-08 17.4 20.0 14.9 14.3-- 8.0 2.7---- 5.9------------
1999-07-07 17.9 22.0 14.9 15.1-- 7.7 3.0---- 0.2------------
1999-07-06 22.7 25.9 19.1 15.7-- 5.3 3.0---- 7.4------------
1999-07-05 24.6 32.7 17.0 13.1-- 2.3 6.7---- 0.0------------
1999-07-04 23.3 29.7 16.5 13.2-- 2.3 2.7---- 0.0------------
1999-07-03 20.6 25.9 13.8 9.8-- 2.0 3.0---- 0.0------------
1999-07-02 18.3 23.6 13.7 10.5-- 6.0 2.3---- 0.0------------
1999-07-01 19.2 22.6 17.3 14.3-- 7.0 2.7---- 0.0------------
1999-06-30 19.7 25.9 12.3 8.2-- 5.7 3.7---- 1.6------------
1999-06-29 18.5 23.5 11.8 7.7-- 2.7 3.0---- 0.0------------
1999-06-28 20.1 26.4 14.9 10.7-- 6.7 4.0---- 1.9------------
1999-06-27 19.2 24.0 12.8 9.4-- 5.0 5.3---- 0.3------------
1999-06-26 14.3 20.0 6.0 2.2-- 1.7 3.7---- 0.0------------
1999-06-25 12.5 18.6 7.4 3.2-- 7.0 2.0---- 0.1------------
1999-06-24 13.4 18.0 6.6 1.2-- 4.3 1.3---- 0.7------------
1999-06-23 13.2 17.8 9.7 9.7-- 6.7 5.3---- 0.0------------
1999-06-22 11.3 13.6 9.7 7.5-- 8.0 3.7---- 4.7------------
1999-06-21 15.6 19.8 12.8 12.2-- 8.0 3.0---- 2.1------------
1999-06-20 18.6 23.0 13.2 9.4-- 4.3 2.7---- 0.0------------
1999-06-19 15.9 18.5 12.6 11.6-- 8.0 3.3---- 1.1------------
1999-06-18 17.1 21.0 12.8 9.1-- 8.0 5.7---- 4.5------------
1999-06-17 18.4 22.0 15.1 14.1-- 7.7 1.3---- 0.0------------
1999-06-16 16.7 21.4 10.2 5.7-- 8.0 3.0---- 0.0------------
301.6 ms

 

Źródłem pochodzenia danych jest Instytut Meteorologii i Gospodarki Wodnej – Państwowy Instytut Badawczy. Dane Instytutu Meteorologii i Gospodarki Wodnej – Państwowego Instytutu Badawczego zostały przetworzone.

Dane źródłowe można odnaleźć na stronie https://dane.imgw.pl